createdAt,value
2022-08-01T00:01:31.190Z,23.33
2022-08-01T00:03:59.656Z,17.80
2022-08-01T00:06:29.559Z,16.83
2022-08-01T00:08:58.053Z,20.65
2022-08-01T00:11:26.533Z,10.27
2022-08-01T00:13:55.382Z,10.25
2022-08-01T00:16:24.570Z,10.88
2022-08-01T00:18:53.116Z,9.85
2022-08-01T00:21:21.586Z,11.07
2022-08-01T00:23:51.411Z,11.15
2022-08-01T00:26:20.507Z,13.98
2022-08-01T00:28:48.874Z,11.35
2022-08-01T00:31:17.313Z,10.70
2022-08-01T00:33:45.734Z,9.57
2022-08-01T00:36:14.333Z,10.55
2022-08-01T00:38:42.833Z,9.98
2022-08-01T00:41:12.866Z,11.00
2022-08-01T00:43:41.415Z,9.63
2022-08-01T00:46:09.921Z,8.93
2022-08-01T00:48:38.440Z,8.90
2022-08-01T00:51:07.725Z,11.25
2022-08-01T00:53:51.473Z,11.18
2022-08-01T00:56:24.099Z,12.57
2022-08-01T00:58:52.739Z,8.95
2022-08-01T01:01:23.381Z,9.57
2022-08-01T01:04:00.273Z,12.57
2022-08-01T01:06:43.858Z,11.50
2022-08-01T01:09:26.359Z,9.25
2022-08-01T01:12:10.354Z,8.25
2022-08-01T01:14:47.713Z,12.10
2022-08-01T01:17:40.698Z,10.15
2022-08-01T01:20:12.773Z,7.10
2022-08-01T01:22:52.928Z,11.02
2022-08-01T01:25:35.176Z,8.27
2022-08-01T01:28:14.573Z,7.95
2022-08-01T01:30:47.725Z,9.20
2022-08-01T01:33:18.522Z,11.20
2022-08-01T01:35:50.910Z,9.00
2022-08-01T01:38:23.332Z,11.18
2022-08-01T01:40:54.053Z,8.98
2022-08-01T01:43:28.854Z,10.40
2022-08-01T01:46:05.791Z,9.77
2022-08-01T01:48:35.918Z,10.02
2022-08-01T01:51:05.469Z,9.07
2022-08-01T01:53:37.073Z,16.73
2022-08-01T01:56:05.997Z,11.30
2022-08-01T01:58:38.695Z,11.18
2022-08-01T02:01:14.399Z,10.90
2022-08-01T02:03:44.963Z,12.82
2022-08-01T02:06:17.063Z,10.43
2022-08-01T02:08:47.240Z,13.10
2022-08-01T02:11:22.446Z,9.90
2022-08-01T02:13:57.927Z,11.25
2022-08-01T02:16:30.518Z,13.15
2022-08-01T02:18:59.664Z,11.57
2022-08-01T02:21:32.209Z,14.52
2022-08-01T02:24:10.383Z,14.30
2022-08-01T02:26:43.464Z,15.95
2022-08-01T02:29:15.711Z,21.65
2022-08-01T02:31:48.933Z,12.32
2022-08-01T02:34:20.271Z,17.10
2022-08-01T02:36:50.218Z,14.05
2022-08-01T02:39:21.536Z,17.02
2022-08-01T02:41:57.741Z,15.68
2022-08-01T02:44:29.025Z,19.50
2022-08-01T02:47:03.653Z,15.05
2022-08-01T02:49:35.457Z,17.88
2022-08-01T02:52:07.828Z,16.65
2022-08-01T02:54:38.372Z,12.80
2022-08-01T02:57:09.922Z,16.83
2022-08-01T02:59:43.518Z,14.70
2022-08-01T03:02:16.220Z,12.65
2022-08-01T03:04:45.991Z,14.15
2022-08-01T03:07:15.992Z,17.70
2022-08-01T03:09:48.052Z,17.02
2022-08-01T03:12:19.952Z,16.27
2022-08-01T03:14:51.619Z,18.13
2022-08-01T03:17:24.637Z,18.48
2022-08-01T03:19:54.391Z,18.45
2022-08-01T03:22:25.190Z,22.73
2022-08-01T03:24:55.626Z,15.55
2022-08-01T03:27:26.263Z,16.15
2022-08-01T03:29:57.962Z,13.35
2022-08-01T03:32:30.424Z,12.45
2022-08-01T03:34:59.371Z,18.05
2022-08-01T03:37:30.538Z,16.85
2022-08-01T03:40:04.447Z,15.77
2022-08-01T03:42:35.954Z,11.85
2022-08-01T03:45:13.466Z,10.45
2022-08-01T03:47:46.257Z,10.35
2022-08-01T03:50:18.889Z,8.77
2022-08-01T03:52:50.291Z,7.40
2022-08-01T03:55:20.829Z,8.88
2022-08-01T03:57:50.170Z,10.93
2022-08-01T04:00:20.447Z,11.98
2022-08-01T04:02:51.917Z,8.43
2022-08-01T04:05:21.810Z,8.93
2022-08-01T04:07:56.712Z,10.40
2022-08-01T04:10:26.067Z,9.43
2022-08-01T04:12:54.794Z,11.15
2022-08-01T04:15:23.522Z,8.02
2022-08-01T04:17:55.109Z,9.95
2022-08-01T04:20:23.788Z,8.60
2022-08-01T04:22:53.330Z,9.55
2022-08-01T04:25:27.231Z,7.97
2022-08-01T04:27:57.011Z,11.55
2022-08-01T04:30:30.911Z,9.88
2022-08-01T04:33:03.229Z,10.32
2022-08-01T04:36:02.524Z,10.02
2022-08-01T04:38:24.531Z,10.35
2022-08-01T04:40:54.330Z,9.05
2022-08-01T04:43:24.073Z,12.90
2022-08-01T04:45:53.784Z,11.95
2022-08-01T04:48:25.904Z,13.18
2022-08-01T04:50:56.772Z,18.88
2022-08-01T04:53:27.120Z,11.88
2022-08-01T04:55:56.748Z,18.42
2022-08-01T04:58:25.323Z,13.82
2022-08-01T05:00:53.856Z,13.75
2022-08-01T05:03:23.973Z,18.58
2022-08-01T05:05:52.456Z,16.50
2022-08-01T05:08:21.639Z,17.30
2022-08-01T05:10:50.255Z,20.50
2022-08-01T05:13:18.874Z,21.67
2022-08-01T05:15:47.367Z,27.98
2022-08-01T05:18:15.878Z,23.25
2022-08-01T05:20:45.753Z,24.85
2022-08-01T05:23:29.793Z,19.77
2022-08-01T05:26:05.975Z,21.08
2022-08-01T05:28:34.762Z,20.50
2022-08-01T05:31:03.322Z,20.45
2022-08-01T05:33:32.012Z,25.70
2022-08-01T05:36:02.645Z,24.33
2022-08-01T05:38:31.479Z,16.00
2022-08-01T05:41:01.360Z,21.35
2022-08-01T05:43:29.876Z,16.98
2022-08-01T05:45:59.454Z,21.00
2022-08-01T05:48:28.024Z,18.95
2022-08-01T05:50:58.643Z,19.02
2022-08-01T05:53:29.087Z,26.38
2022-08-01T05:55:57.827Z,19.15
2022-08-01T05:58:26.380Z,19.45
2022-08-01T06:00:54.959Z,16.75
2022-08-01T06:03:23.806Z,16.98
2022-08-01T06:05:54.051Z,17.75
2022-08-01T06:08:22.571Z,16.58
2022-08-01T06:10:52.446Z,15.10
2022-08-01T06:13:21.178Z,9.30
2022-08-01T06:15:50.009Z,11.30
2022-08-01T06:18:20.918Z,13.73
2022-08-01T06:20:49.623Z,12.98
2022-08-01T06:23:32.365Z,14.52
2022-08-01T06:26:03.096Z,10.70
2022-08-01T06:28:31.954Z,11.52
2022-08-01T06:31:01.290Z,12.57
2022-08-01T06:33:30.259Z,19.23
2022-08-01T06:35:58.879Z,10.32
2022-08-01T06:38:27.603Z,13.13
2022-08-01T06:40:56.071Z,10.52
2022-08-01T06:43:25.973Z,10.75
2022-08-01T06:45:54.659Z,10.13
2022-08-01T06:48:24.559Z,10.48
2022-08-01T06:51:08.935Z,12.40
2022-08-01T06:53:39.756Z,12.68
2022-08-01T06:56:10.523Z,8.10
2022-08-01T06:58:40.305Z,12.02
2022-08-01T07:01:09.321Z,9.30
2022-08-01T07:03:53.240Z,7.40
2022-08-01T07:06:25.266Z,11.27
2022-08-01T07:08:54.625Z,15.10
2022-08-01T07:11:25.256Z,8.10
2022-08-01T07:13:55.154Z,8.48
2022-08-01T07:16:23.821Z,12.13
2022-08-01T07:18:52.419Z,13.77
2022-08-01T07:21:38.696Z,11.52
2022-08-01T07:24:13.175Z,7.85
2022-08-01T07:26:53.553Z,9.05
2022-08-01T07:29:26.053Z,9.77
2022-08-01T07:31:55.612Z,7.80
2022-08-01T07:34:25.184Z,8.57
2022-08-01T07:36:54.513Z,9.48
2022-08-01T07:39:23.368Z,8.25
2022-08-01T07:42:05.986Z,7.43
2022-08-01T07:44:38.578Z,7.18
2022-08-01T07:47:07.667Z,9.23
2022-08-01T07:49:40.461Z,10.55
2022-08-01T07:52:10.677Z,9.00
2022-08-01T07:54:39.308Z,6.25
2022-08-01T07:57:08.282Z,9.57
2022-08-01T07:59:38.337Z,13.18
2022-08-01T08:02:07.060Z,6.53
2022-08-01T08:04:35.849Z,9.95
2022-08-01T08:07:05.534Z,7.85
2022-08-01T08:09:37.954Z,8.43
2022-08-01T08:12:08.452Z,10.27
2022-08-01T08:14:38.760Z,9.65
2022-08-01T08:17:08.042Z,9.38
2022-08-01T08:19:39.254Z,6.78
2022-08-01T08:22:09.417Z,7.65
2022-08-01T08:24:44.100Z,10.38
2022-08-01T08:27:15.486Z,9.32
2022-08-01T08:29:45.434Z,7.43
2022-08-01T08:32:14.058Z,8.10
2022-08-01T08:34:42.750Z,6.30
2022-08-01T08:37:11.591Z,6.47
2022-08-01T08:39:41.915Z,7.50
2022-08-01T08:42:12.089Z,6.72
2022-08-01T08:44:43.552Z,9.45
2022-08-01T08:47:19.658Z,9.70
2022-08-01T08:49:50.396Z,7.80
2022-08-01T08:52:21.127Z,8.30
2022-08-01T08:54:51.442Z,7.63
2022-08-01T08:57:22.214Z,9.48
2022-08-01T08:59:53.085Z,8.50
2022-08-01T09:02:23.378Z,8.27
2022-08-01T09:04:52.705Z,7.00
2022-08-01T09:07:21.274Z,7.90
2022-08-01T09:09:51.416Z,6.07
2022-08-01T09:12:21.471Z,6.10
2022-08-01T09:14:54.650Z,7.45
2022-08-01T09:17:28.034Z,10.82
2022-08-01T09:19:59.103Z,9.43
2022-08-01T09:22:34.739Z,6.72
2022-08-01T09:25:06.081Z,10.82
2022-08-01T09:27:35.644Z,8.45
2022-08-01T09:30:13.252Z,5.30
2022-08-01T09:33:01.801Z,7.10
2022-08-01T09:35:43.684Z,8.52
2022-08-01T09:38:17.996Z,10.50
2022-08-01T09:40:51.718Z,6.43
2022-08-01T09:43:21.141Z,10.07
2022-08-01T09:45:50.798Z,10.60
2022-08-01T09:48:28.036Z,7.50
2022-08-01T09:51:04.640Z,6.10
2022-08-01T09:53:52.131Z,6.72
2022-08-01T09:56:23.091Z,9.40
2022-08-01T09:59:00.443Z,13.65
2022-08-01T10:01:43.390Z,7.82
2022-08-01T10:04:15.142Z,6.47
2022-08-01T10:06:45.656Z,6.50
2022-08-01T10:09:15.804Z,9.10
2022-08-01T10:11:45.570Z,6.72
2022-08-01T10:14:17.729Z,6.05
2022-08-01T10:16:52.968Z,9.90
2022-08-01T10:19:28.949Z,7.15
2022-08-01T10:22:00.253Z,7.55
2022-08-01T10:24:31.285Z,11.60
2022-08-01T10:27:08.380Z,6.88
2022-08-01T10:30:00.101Z,7.45
2022-08-01T10:32:36.028Z,5.63
2022-08-01T10:35:07.362Z,7.97
2022-08-01T10:37:51.875Z,4.70
2022-08-01T10:40:30.987Z,5.38
2022-08-01T10:43:00.461Z,4.03
2022-08-01T10:45:30.553Z,4.43
2022-08-01T10:48:06.351Z,5.97
2022-08-01T10:50:42.543Z,6.10
2022-08-01T10:53:16.432Z,6.10
2022-08-01T10:56:02.274Z,7.00
2022-08-01T10:58:39.837Z,6.68
2022-08-01T11:01:20.497Z,4.03
2022-08-01T11:04:15.561Z,4.65
2022-08-01T11:06:57.021Z,6.88
2022-08-01T11:09:39.815Z,3.25
2022-08-01T11:12:13.454Z,5.15
2022-08-01T11:15:30.271Z,3.92
2022-08-01T11:18:05.418Z,4.15
2022-08-01T11:20:41.811Z,3.90
2022-08-01T11:23:23.386Z,4.80
2022-08-01T11:26:15.269Z,6.07
2022-08-01T11:29:11.182Z,4.95
2022-08-01T11:31:38.213Z,3.60
2022-08-01T11:34:08.191Z,5.60
2022-08-01T11:36:58.338Z,5.32
2022-08-01T11:39:29.524Z,6.47
2022-08-01T11:42:22.247Z,4.30
2022-08-01T11:44:52.372Z,6.03
2022-08-01T11:47:43.499Z,5.35
2022-08-01T11:50:33.246Z,7.75
2022-08-01T11:53:02.908Z,9.07
2022-08-01T11:55:35.850Z,5.70
2022-08-01T11:58:06.414Z,8.75
2022-08-01T12:00:35.440Z,6.57
2022-08-01T12:03:07.621Z,5.55
2022-08-01T12:05:43.188Z,4.10
2022-08-01T12:08:12.064Z,3.67
2022-08-01T12:10:49.588Z,4.20
2022-08-01T12:13:20.508Z,4.22
2022-08-01T12:15:56.233Z,6.47
2022-08-01T12:18:25.533Z,3.85
2022-08-01T12:21:04.250Z,9.10
2022-08-01T12:23:32.809Z,4.15
2022-08-01T12:26:05.072Z,4.20
2022-08-01T12:28:41.926Z,6.72
2022-08-01T12:31:10.483Z,5.55
2022-08-01T12:33:43.120Z,5.10
2022-08-01T12:36:15.265Z,4.80
2022-08-01T12:38:43.938Z,8.13
2022-08-01T12:41:15.594Z,6.18
2022-08-01T12:43:44.234Z,9.10
2022-08-01T12:46:17.232Z,3.63
2022-08-01T12:48:46.568Z,3.28
2022-08-01T12:51:15.316Z,5.22
2022-08-01T12:53:43.795Z,8.77
2022-08-01T12:56:13.653Z,4.28
2022-08-01T12:58:44.809Z,3.80
2022-08-01T13:01:14.522Z,6.25
2022-08-01T13:03:43.388Z,4.18
2022-08-01T13:06:15.903Z,4.35
2022-08-01T13:08:45.464Z,4.25
2022-08-01T13:11:19.204Z,5.75
2022-08-01T13:13:50.349Z,5.90
2022-08-01T13:16:31.131Z,4.28
2022-08-01T13:19:10.216Z,6.38
2022-08-01T13:21:52.696Z,5.63
2022-08-01T13:24:29.265Z,4.80
2022-08-01T13:27:01.581Z,10.85
2022-08-01T13:29:35.764Z,8.38
2022-08-01T13:32:28.464Z,5.75
2022-08-01T13:35:06.376Z,3.95
2022-08-01T13:37:35.111Z,6.82
2022-08-01T13:40:06.830Z,6.55
2022-08-01T13:42:37.482Z,4.13
2022-08-01T13:45:13.956Z,7.43
2022-08-01T13:48:03.595Z,3.75
2022-08-01T13:50:35.018Z,4.80
2022-08-01T13:53:03.662Z,6.35
2022-08-01T13:55:35.211Z,6.00
2022-08-01T13:58:06.209Z,9.40
2022-08-01T14:00:34.701Z,4.63
2022-08-01T14:03:03.262Z,4.50
2022-08-01T14:05:32.387Z,6.15
2022-08-01T14:08:01.126Z,6.18
2022-08-01T14:10:30.711Z,12.10
2022-08-01T14:12:59.697Z,13.38
2022-08-01T14:15:37.473Z,10.40
2022-08-01T14:18:11.000Z,28.73
2022-08-01T14:20:41.619Z,10.63
2022-08-01T14:23:14.773Z,11.88
2022-08-01T14:26:00.675Z,17.83
2022-08-01T14:28:35.300Z,12.30
2022-08-01T14:31:07.203Z,14.23
2022-08-01T14:33:36.318Z,14.32
2022-08-01T14:36:30.329Z,14.90
2022-08-01T14:38:55.655Z,19.05
2022-08-01T14:41:30.953Z,17.17
2022-08-01T14:44:00.779Z,21.55
2022-08-01T14:46:31.473Z,22.63
2022-08-01T14:49:02.410Z,26.10
2022-08-01T14:51:34.126Z,24.42
2022-08-01T14:54:02.747Z,20.00
2022-08-01T14:56:33.556Z,19.02
2022-08-01T14:59:02.438Z,19.88
2022-08-01T15:01:32.933Z,18.58
2022-08-01T15:04:04.533Z,19.92
2022-08-01T15:06:34.168Z,21.17
2022-08-01T15:09:02.708Z,18.70
2022-08-01T15:11:36.853Z,21.88
2022-08-01T15:14:23.334Z,18.05
2022-08-01T15:39:23.481Z,9.15
2022-08-01T15:41:52.519Z,9.73
2022-08-01T15:44:22.708Z,9.85
2022-08-01T15:46:52.329Z,8.68
2022-08-01T15:49:23.389Z,10.85
2022-08-01T15:51:53.483Z,11.27
2022-08-01T15:54:23.631Z,10.27
2022-08-01T15:56:53.200Z,10.35
2022-08-01T15:59:23.198Z,11.15
2022-08-01T16:01:52.805Z,9.68
2022-08-01T16:04:29.947Z,10.75
2022-08-01T16:06:58.917Z,8.70
2022-08-01T16:09:30.516Z,6.93
2022-08-01T16:11:59.408Z,7.55
2022-08-01T16:14:28.070Z,7.35
2022-08-01T16:16:56.707Z,9.38
2022-08-01T16:19:26.497Z,7.40
2022-08-01T16:21:55.099Z,6.68
2022-08-01T16:24:29.174Z,8.43
2022-08-01T16:27:00.034Z,6.60
2022-08-01T16:29:30.917Z,9.95
2022-08-01T16:32:08.020Z,7.60
2022-08-01T16:34:49.077Z,7.85
2022-08-01T16:37:17.857Z,7.68
2022-08-01T16:39:47.564Z,7.85
2022-08-01T16:42:17.631Z,13.52
2022-08-01T16:44:46.339Z,9.52
2022-08-01T16:47:18.545Z,9.23
2022-08-01T16:49:47.347Z,8.27
2022-08-01T16:52:16.067Z,8.27
2022-08-01T16:54:45.257Z,8.65
2022-08-01T16:57:14.631Z,8.20
2022-08-01T16:59:44.821Z,8.35
2022-08-01T17:02:13.379Z,8.68
2022-08-01T17:04:42.045Z,9.38
2022-08-01T17:07:11.006Z,8.50
2022-08-01T17:09:43.301Z,7.90
2022-08-01T17:12:21.893Z,10.55
2022-08-01T17:14:52.777Z,10.70
2022-08-01T17:17:21.531Z,10.18
2022-08-01T17:19:50.496Z,9.70
2022-08-01T17:22:19.840Z,11.35
2022-08-01T17:24:51.211Z,13.95
2022-08-01T17:27:19.902Z,12.02
2022-08-01T17:29:48.518Z,13.07
2022-08-01T17:32:18.641Z,13.23
2022-08-01T17:34:47.672Z,13.13
2022-08-01T17:37:16.644Z,13.57
2022-08-01T17:39:45.232Z,17.70
2022-08-01T17:42:13.942Z,18.58
2022-08-01T17:44:49.065Z,18.67
2022-08-01T17:47:48.179Z,15.95
2022-08-01T17:50:12.804Z,18.02
2022-08-01T17:52:42.293Z,15.85
2022-08-01T17:55:53.705Z,18.25
2022-08-01T17:58:00.631Z,17.27
2022-08-01T18:00:29.385Z,20.08
2022-08-01T18:02:59.487Z,16.55
2022-08-01T18:05:37.015Z,17.10
2022-08-01T18:08:07.507Z,18.10
2022-08-01T18:10:36.186Z,17.85
2022-08-01T18:13:08.815Z,15.95
2022-08-01T18:15:38.232Z,15.40
2022-08-01T18:18:08.682Z,17.80
2022-08-01T18:20:37.305Z,18.85
2022-08-01T18:23:08.804Z,18.23
2022-08-01T18:25:37.442Z,19.75
2022-08-01T18:28:29.991Z,21.10
2022-08-01T18:30:58.946Z,17.35
2022-08-01T18:33:29.226Z,21.88
2022-08-01T18:36:01.843Z,17.05
2022-08-01T18:38:33.474Z,20.92
2022-08-01T18:41:05.318Z,25.70
2022-08-01T18:43:33.903Z,35.00
2022-08-01T18:46:04.276Z,41.53
2022-08-01T18:48:34.186Z,30.52
2022-08-01T18:51:02.736Z,26.27
2022-08-01T18:53:31.454Z,29.15
2022-08-01T18:55:59.972Z,29.00
2022-08-01T18:58:28.636Z,18.80
2022-08-01T19:00:59.404Z,15.57
2022-08-01T19:03:28.531Z,13.52
2022-08-01T19:05:58.479Z,11.20
2022-08-01T19:08:27.703Z,10.25
2022-08-01T19:10:56.268Z,9.38
2022-08-01T19:13:32.257Z,8.05
2022-08-01T19:16:01.540Z,8.38
2022-08-01T19:18:30.131Z,11.57
2022-08-01T19:21:00.898Z,27.33
2022-08-01T19:23:46.991Z,25.75
2022-08-01T19:26:17.974Z,16.40
2022-08-01T19:28:48.252Z,12.15
2022-08-01T19:31:16.938Z,6.38
2022-08-01T19:33:46.036Z,6.47
2022-08-01T19:36:18.520Z,6.03
2022-08-01T19:38:47.692Z,5.07
2022-08-01T19:41:18.242Z,5.38
2022-08-01T19:43:48.102Z,8.23
2022-08-01T19:46:18.283Z,10.18
2022-08-01T19:48:53.524Z,10.57
2022-08-01T19:51:32.980Z,6.25
2022-08-01T19:54:05.922Z,5.72
2022-08-01T19:56:39.914Z,5.60
2022-08-01T19:59:09.770Z,8.18
2022-08-01T20:01:38.505Z,12.80
2022-08-01T20:04:07.934Z,9.20
2022-08-01T20:06:37.971Z,12.07
2022-08-01T20:09:07.120Z,7.50
2022-08-01T20:11:36.328Z,7.05
2022-08-01T20:14:05.242Z,6.30
2022-08-01T20:16:34.151Z,6.13
2022-08-01T20:19:02.780Z,3.85
2022-08-01T20:21:31.497Z,7.55
2022-08-01T20:24:03.457Z,10.15
2022-08-01T20:26:33.618Z,30.08
2022-08-01T20:29:05.017Z,35.85
2022-08-01T20:31:43.124Z,38.22
2022-08-01T20:34:15.972Z,41.10
2022-08-01T20:36:51.156Z,37.05
2022-08-01T20:39:28.745Z,30.92
2022-08-01T20:41:59.458Z,27.10
2022-08-01T20:44:32.768Z,19.40
2022-08-01T20:47:02.288Z,13.30
2022-08-01T20:49:32.223Z,10.18
2022-08-01T20:52:11.056Z,21.17
2022-08-01T20:54:42.668Z,26.20
2022-08-01T20:57:17.275Z,19.08
2022-08-01T20:59:56.953Z,12.52
2022-08-01T21:02:41.716Z,9.88
2022-08-01T21:05:12.843Z,17.95
2022-08-01T21:07:49.590Z,19.75
2022-08-01T21:10:24.541Z,30.58
2022-08-01T21:13:01.917Z,32.97
2022-08-01T21:15:33.630Z,32.20
2022-08-01T21:18:05.478Z,32.20
2022-08-01T21:20:40.236Z,14.63
2022-08-01T21:23:17.341Z,7.38
2022-08-01T21:25:49.381Z,7.70
2022-08-01T21:28:19.430Z,6.47
2022-08-01T21:30:55.580Z,7.57
2022-08-01T21:33:26.304Z,6.38
2022-08-01T21:35:56.643Z,8.82
2022-08-01T21:38:26.771Z,9.82
2022-08-01T21:40:57.721Z,9.43
2022-08-01T21:43:26.382Z,8.43
2022-08-01T21:45:57.837Z,7.20
2022-08-01T21:48:30.167Z,7.93
2022-08-01T21:51:02.610Z,12.60
2022-08-01T21:53:43.552Z,15.98
2022-08-01T21:56:25.523Z,14.30
2022-08-01T21:59:03.866Z,11.77
2022-08-01T22:01:52.062Z,24.42
2022-08-01T22:04:29.205Z,34.13
2022-08-01T22:07:00.252Z,40.80
2022-08-01T22:09:30.886Z,36.15
2022-08-01T22:12:06.617Z,29.48
2022-08-01T22:14:40.742Z,33.42
2022-08-01T22:17:11.478Z,19.02
2022-08-01T22:19:44.839Z,17.25
2022-08-01T22:22:50.744Z,17.45
2022-08-01T22:25:05.292Z,19.20
2022-08-01T22:28:06.535Z,18.42
2022-08-01T22:30:25.077Z,19.50
2022-08-01T22:33:15.333Z,15.70
2022-08-01T22:35:46.631Z,15.43
2022-08-01T22:38:15.298Z,17.83
2022-08-01T22:40:51.268Z,16.50
2022-08-01T22:43:26.555Z,13.57
2022-08-01T22:46:11.207Z,19.77
2022-08-01T22:48:46.535Z,14.95
2022-08-01T22:51:27.851Z,14.77
2022-08-01T22:54:06.123Z,13.18
2022-08-01T22:56:39.233Z,15.13
2022-08-01T22:59:15.507Z,12.57
2022-08-01T23:01:48.628Z,13.15
2022-08-01T23:04:33.754Z,15.35
2022-08-01T23:07:07.454Z,15.88
2022-08-01T23:09:53.734Z,15.70
2022-08-01T23:12:28.452Z,14.80
2022-08-01T23:14:59.985Z,15.30
2022-08-01T23:17:30.926Z,15.50
2022-08-01T23:20:00.922Z,15.55
2022-08-01T23:22:33.521Z,16.10
2022-08-01T23:25:06.182Z,16.48
2022-08-01T23:27:51.936Z,15.82
2022-08-01T23:30:28.743Z,15.48
2022-08-01T23:32:57.868Z,19.58
2022-08-01T23:35:26.921Z,16.75
2022-08-01T23:37:58.585Z,13.30
2022-08-01T23:40:31.885Z,14.57
2022-08-01T23:43:01.467Z,13.75
2022-08-01T23:45:36.087Z,12.52
2022-08-01T23:48:20.559Z,12.60
2022-08-01T23:50:49.089Z,13.75
2022-08-01T23:53:17.571Z,12.68
2022-08-01T23:55:47.593Z,15.07
2022-08-01T23:58:16.716Z,12.85
